Time;durP1;ratioP1;P1;durP2;ratioP2;P2;SDS_P1;SDS_P2;PMS_P1;PMS_P2;Temp;Humidity;BMP_temperature;BMP_pressure;BME280_temperature;BME280_humidity;BME280_pressure;Samples;Min_cycle;Max_cycle;Signal;HPM_P1;HPM_P2
2022/10/12 00:01:58;;;;;;;10.80;4.30;;;;;;;5.04;89.61;101896.80;103616;1290;60652;-80
2022/10/12 00:04:32;;;;;;;13.00;4.60;;;;;;;5.02;89.86;101896.60;104463;1283;60450;-80
2022/10/12 00:06:59;;;;;;;11.10;4.70;;;;;;;5.01;89.49;101900.34;104690;1297;60495;-80
2022/10/12 00:09:25;;;;;;;10.90;4.50;;;;;;;4.99;89.79;101902.11;104706;1294;58599;-80
2022/10/12 00:11:51;;;;;;;12.30;4.60;;;;;;;4.97;89.76;101903.46;103659;1302;406933;-80
2022/10/12 00:14:18;;;;;;;12.80;5.20;;;;;;;4.96;90.06;101908.26;104262;1297;59275;-80
2022/10/12 00:16:44;;;;;;;12.60;5.10;;;;;;;4.96;90.22;101906.33;104536;1294;58360;-80
2022/10/12 00:19:13;;;;;;;9.70;4.60;;;;;;;4.95;89.99;101905.20;104154;1301;60551;-79
2022/10/12 00:21:39;;;;;;;11.60;5.40;;;;;;;4.92;89.89;101910.14;104131;1281;71305;-79
2022/10/12 00:24:06;;;;;;;13.70;4.90;;;;;;;4.89;90.00;101912.44;104795;1295;71121;-81
2022/10/12 00:26:32;;;;;;;11.10;4.60;;;;;;;4.87;90.04;101911.14;104802;1292;59770;-80
2022/10/12 00:29:00;;;;;;;9.80;4.30;;;;;;;4.86;90.07;101911.54;104470;1301;60517;-79
2022/10/12 00:31:28;;;;;;;13.80;4.60;;;;;;;4.85;90.06;101911.67;104708;1287;73016;-79
2022/10/12 00:33:55;;;;;;;10.30;4.40;;;;;;;4.83;90.06;101911.95;104246;1299;70248;-80
2022/10/12 00:36:31;;;;;;;9.30;4.10;;;;;;;4.81;89.90;101916.33;104743;1298;72905;-79
2022/10/12 00:38:58;;;;;;;10.30;4.60;;;;;;;4.78;90.01;101911.63;103745;1292;59174;-79
2022/10/12 00:41:30;;;;;;;11.00;4.60;;;;;;;4.77;90.15;101909.77;104266;1300;60562;-79
2022/10/12 00:43:56;;;;;;;12.00;4.60;;;;;;;4.76;90.15;101912.29;104625;1293;72950;-79
2022/10/12 00:46:41;;;;;;;12.10;4.70;;;;;;;4.74;90.22;101904.67;104926;1292;69001;-80
2022/10/12 00:49:17;;;;;;;14.20;4.50;;;;;;;4.73;90.20;101905.30;103945;1296;72729;-80
2022/10/12 00:51:52;;;;;;;11.90;4.70;;;;;;;4.73;90.37;101908.99;104185;1299;59678;-79
2022/10/12 00:54:25;;;;;;;12.20;4.50;;;;;;;4.71;90.11;101904.21;104745;1265;61197;-80
2022/10/12 00:56:54;;;;;;;12.40;4.90;;;;;;;4.70;90.39;101903.42;104576;1301;73438;-79
2022/10/12 00:59:26;;;;;;;11.30;4.90;;;;;;;4.69;90.17;101904.91;104326;1303;69551;-80
2022/10/12 01:01:55;;;;;;;12.50;4.40;;;;;;;4.67;90.25;101904.14;104617;1297;71506;-82
2022/10/12 01:04:23;;;;;;;14.10;4.50;;;;;;;4.65;90.29;101903.73;105134;1283;59592;-80
2022/10/12 01:06:51;;;;;;;11.80;4.70;;;;;;;4.63;90.01;101905.29;104125;1299;59293;-80
2022/10/12 01:09:19;;;;;;;11.90;4.80;;;;;;;4.63;90.28;101904.97;104497;1297;72362;-80
2022/10/12 01:11:48;;;;;;;10.30;4.80;;;;;;;4.61;90.28;101907.22;103965;1301;70095;-79
2022/10/12 01:14:16;;;;;;;9.90;4.50;;;;;;;4.58;90.18;101904.27;104616;1300;71619;-78
2022/10/12 01:16:50;;;;;;;12.00;4.90;;;;;;;4.56;90.20;101905.62;103483;1295;61058;-79
2022/10/12 01:19:41;;;;;;;12.20;5.10;;;;;;;4.54;90.33;101905.25;104191;1295;59695;-80
2022/10/12 01:22:13;;;;;;;13.30;5.60;;;;;;;4.53;90.49;101903.91;104821;1299;73454;-81
2022/10/12 01:24:49;;;;;;;10.60;5.20;;;;;;;4.51;90.48;101903.31;104547;1288;72305;-81
2022/10/12 01:27:34;;;;;;;15.90;6.10;;;;;;;4.51;90.74;101899.70;104061;1293;71649;-81
2022/10/12 01:30:22;;;;;;;14.20;5.60;;;;;;;4.49;90.87;101900.48;104341;1300;59996;-80
2022/10/12 01:33:12;;;;;;;13.70;5.70;;;;;;;4.47;90.86;101899.01;104679;1299;59242;-80
2022/10/12 01:35:47;;;;;;;14.90;6.00;;;;;;;4.46;91.16;101898.39;104343;1300;73634;-81
2022/10/12 01:38:20;;;;;;;13.70;6.10;;;;;;;4.46;91.23;101897.16;104275;1295;69692;-80
2022/10/12 01:40:58;;;;;;;15.60;5.80;;;;;;;4.47;91.24;101899.77;104829;1295;70242;-81
2022/10/12 01:43:34;;;;;;;14.40;5.90;;;;;;;4.46;91.37;101898.55;104037;1295;60593;-80
2022/10/12 01:46:24;;;;;;;15.00;6.50;;;;;;;4.45;90.87;101893.56;104388;1284;60891;-81
2022/10/12 01:48:57;;;;;;;11.90;5.80;;;;;;;4.43;91.17;101891.94;104029;1300;72897;-80
2022/10/12 01:52:09;;;;;;;10.90;5.20;;;;;;;4.42;91.36;101890.45;104829;1292;71218;-81
2022/10/12 01:54:45;;;;;;;12.10;5.50;;;;;;;4.41;91.13;101888.02;104193;1285;71208;-80
2022/10/12 01:57:57;;;;;;;14.30;5.80;;;;;;;4.40;91.17;101888.64;104251;1300;61095;-80
2022/10/12 02:00:32;;;;;;;11.10;5.40;;;;;;;4.38;91.21;101886.67;103423;1305;61504;-80
2022/10/12 02:03:16;;;;;;;14.00;5.70;;;;;;;4.36;91.15;101886.81;103490;1306;72859;-80
2022/10/12 02:06:07;;;;;;;13.50;5.70;;;;;;;4.34;91.34;101883.30;103819;1301;70335;-80
2022/10/12 02:08:51;;;;;;;14.70;5.80;;;;;;;4.32;91.21;101887.85;103530;1297;72498;-79
2022/10/12 02:11:25;;;;;;;10.70;5.40;;;;;;;4.29;91.00;101882.61;104247;1295;59998;-80
2022/10/12 02:14:21;;;;;;;14.00;6.80;;;;;;;4.25;91.20;101880.41;103878;1300;60473;-80
2022/10/12 02:17:03;;;;;;;11.50;5.60;;;;;;;4.22;91.06;101878.72;104023;1293;71549;-79
2022/10/12 02:19:47;;;;;;;11.70;5.30;;;;;;;4.18;91.13;101877.56;103422;1301;71218;-79
2022/10/12 02:22:24;;;;;;;11.10;5.20;;;;;;;4.15;91.18;101877.43;104398;1297;73390;-80
2022/10/12 02:24:54;;;;;;;10.40;5.20;;;;;;;4.10;90.96;101877.36;104081;1299;62053;-78
2022/10/12 02:27:23;;;;;;;11.00;5.50;;;;;;;4.07;90.88;101878.82;103923;1300;59554;-80
2022/10/12 02:29:49;;;;;;;10.10;5.60;;;;;;;4.04;91.13;101876.92;104669;1289;73892;-80
2022/10/12 02:32:54;;;;;;;11.80;5.70;;;;;;;4.01;91.07;101873.77;103895;1296;60630;-80
2022/10/12 02:35:45;;;;;;;9.70;4.90;;;;;;;3.99;91.06;101867.64;104351;1294;72464;-80
2022/10/12 02:38:36;;;;;;;11.20;5.40;;;;;;;3.96;91.21;101868.36;104084;1299;61696;-80
2022/10/12 02:41:15;;;;;;;12.20;5.40;;;;;;;3.94;91.04;101863.42;103988;1299;59808;-80
2022/10/12 02:44:03;;;;;;;10.30;5.10;;;;;;;3.92;91.06;101861.30;103472;1303;73297;-78
2022/10/12 02:46:41;;;;;;;10.00;5.30;;;;;;;3.89;91.03;101859.94;103648;1294;71510;-79
2022/10/12 02:49:17;;;;;;;12.50;5.30;;;;;;;3.85;91.03;101856.30;103602;1300;71975;-80
2022/10/12 02:51:53;;;;;;;11.00;5.50;;;;;;;3.83;91.25;101854.73;103867;1293;59372;-81
2022/10/12 02:54:20;;;;;;;10.50;4.70;;;;;;;3.80;91.18;101853.29;104870;1295;60497;-81
2022/10/12 02:56:46;;;;;;;10.80;5.10;;;;;;;3.79;91.46;101856.01;104716;1295;60452;-80
2022/10/12 02:59:15;;;;;;;10.40;5.20;;;;;;;3.78;91.21;101852.94;104317;1295;69419;-80
2022/10/12 03:01:41;;;;;;;13.50;5.40;;;;;;;3.77;91.58;101852.30;103850;1300;71604;-80
2022/10/12 03:04:09;;;;;;;12.00;5.30;;;;;;;3.76;91.43;101849.73;103714;1302;60481;-79
2022/10/12 03:06:35;;;;;;;9.40;4.90;;;;;;;3.76;91.56;101849.23;104222;1300;60487;-78
2022/10/12 03:09:06;;;;;;;10.20;5.40;;;;;;;3.75;91.42;101848.96;103716;1302;75067;-77
2022/10/12 03:11:33;;;;;;;9.30;5.00;;;;;;;3.74;91.46;101847.46;104499;1299;70454;-78
2022/10/12 03:14:00;;;;;;;14.20;5.00;;;;;;;3.72;91.39;101844.09;104044;1300;71255;-78
2022/10/12 03:16:29;;;;;;;9.20;5.00;;;;;;;3.71;91.47;101843.09;104249;1299;60756;-79
2022/10/12 03:18:57;;;;;;;9.30;4.80;;;;;;;3.68;91.39;101840.45;103279;1302;60594;-79
2022/10/12 03:21:24;;;;;;;10.10;5.00;;;;;;;3.65;91.48;101840.81;103464;1300;72426;-80
2022/10/12 03:24:00;;;;;;;11.10;5.00;;;;;;;3.64;91.71;101841.23;103614;1301;70566;-79
2022/10/12 03:26:28;;;;;;;11.70;4.80;;;;;;;3.63;91.60;101841.86;103324;1302;71189;-78
2022/10/12 03:28:58;;;;;;;8.80;5.30;;;;;;;3.62;91.58;101842.27;103475;1299;60477;-79
2022/10/12 03:31:38;;;;;;;9.40;5.00;;;;;;;3.61;91.74;101843.05;103485;1302;61679;-79
2022/10/12 03:34:13;;;;;;;9.30;4.70;;;;;;;3.59;92.00;101842.66;103052;1302;72765;-79
2022/10/12 03:36:40;;;;;;;9.70;5.10;;;;;;;3.57;91.87;101839.46;104570;1292;60484;-80
2022/10/12 03:39:06;;;;;;;8.60;4.70;;;;;;;3.55;92.09;101835.17;103394;1295;72461;-80
2022/10/12 03:41:36;;;;;;;8.60;4.80;;;;;;;3.54;91.85;101826.69;103838;1294;61101;-79
2022/10/12 03:44:04;;;;;;;9.10;5.00;;;;;;;3.51;92.04;101826.54;103623;1299;60485;-79
2022/10/12 03:46:32;;;;;;;10.20;5.60;;;;;;;3.49;91.92;101826.15;103905;1301;59358;-79
2022/10/12 03:48:59;;;;;;;8.80;4.90;;;;;;;3.48;92.02;101825.55;104735;1300;69608;-80
2022/10/12 03:51:26;;;;;;;10.30;5.20;;;;;;;3.47;92.04;101820.69;103974;1293;61046;-79
2022/10/12 03:53:54;;;;;;;10.50;5.20;;;;;;;3.45;92.02;101827.96;103792;1302;60480;-78
2022/10/12 03:56:20;;;;;;;10.20;4.70;;;;;;;3.43;92.07;101824.11;104128;1299;59599;-79
2022/10/12 03:58:54;;;;;;;10.60;5.30;;;;;;;3.41;91.84;101821.98;104221;1299;72675;-79
2022/10/12 04:01:20;;;;;;;10.40;5.20;;;;;;;3.39;92.16;101820.16;103421;1293;70840;-79
2022/10/12 04:03:53;;;;;;;9.40;4.90;;;;;;;3.38;92.31;101822.36;103248;1305;70904;-78
2022/10/12 04:06:26;;;;;;;11.80;5.10;;;;;;;3.36;92.30;101821.94;104077;1300;60481;-77
2022/10/12 04:08:54;;;;;;;10.10;5.20;;;;;;;3.35;92.24;101817.08;104651;1287;60438;-80
2022/10/12 04:11:21;;;;;;;8.40;4.50;;;;;;;3.35;92.35;101818.70;104250;1299;59658;-78
2022/10/12 04:13:47;;;;;;;7.80;4.30;;;;;;;3.35;92.47;101821.15;104051;1299;60957;-80
2022/10/12 04:16:14;;;;;;;7.90;4.20;;;;;;;3.34;92.08;101818.91;104194;1300;73136;-79
2022/10/12 04:18:40;;;;;;;6.80;4.20;;;;;;;3.33;92.40;101820.89;104235;1290;60691;-79
2022/10/12 04:21:15;;;;;;;6.80;4.50;;;;;;;3.30;92.05;101818.33;103487;1303;60465;-78
2022/10/12 04:23:53;;;;;;;10.50;4.70;;;;;;;3.27;92.06;101819.23;104394;1287;73139;-76
2022/10/12 04:26:19;;;;;;;13.70;6.20;;;;;;;3.23;92.10;101815.58;103772;1293;69444;-77
2022/10/12 04:28:47;;;;;;;15.90;14.00;;;;;;;3.22;92.44;101813.02;104660;1295;72706;-78
2022/10/12 04:31:15;;;;;;;22.10;18.00;;;;;;;3.21;92.47;101808.71;103807;1301;61631;-79
2022/10/12 04:33:43;;;;;;;16.70;15.00;;;;;;;3.20;92.51;101810.16;103217;1296;60366;-78
2022/10/12 04:36:11;;;;;;;13.70;9.80;;;;;;;3.19;92.60;101808.33;103641;1301;74166;-78
2022/10/12 04:41:27;;;;;;;9.50;6.00;;;;;;;3.17;92.60;101812.65;103853;1303;72563;-77
2022/10/12 04:43:54;;;;;;;10.30;5.70;;;;;;;3.17;92.63;101810.44;104497;1300;59653;-78
2022/10/12 04:46:21;;;;;;;10.10;5.60;;;;;;;3.16;92.80;101810.98;103728;1304;60144;-80
2022/10/12 04:48:50;;;;;;;10.30;5.10;;;;;;;3.14;92.65;101810.92;104666;1299;74019;-79
2022/10/12 04:51:17;;;;;;;7.90;4.80;;;;;;;3.14;92.54;101812.38;103489;1300;71226;-78
2022/10/12 04:53:44;;;;;;;8.80;4.80;;;;;;;3.12;92.41;101812.84;103429;1300;72481;-79
2022/10/12 04:56:11;;;;;;;8.20;4.80;;;;;;;3.10;92.63;101815.59;104038;1293;60960;-79
2022/10/12 04:58:48;;;;;;;9.50;4.90;;;;;;;3.06;92.36;101815.84;103742;1274;58907;-78
2022/10/12 05:01:15;;;;;;;10.70;4.60;;;;;;;3.03;92.42;101818.13;103527;1287;72967;-80
2022/10/12 05:03:46;;;;;;;9.10;4.70;;;;;;;3.00;92.52;101818.68;104589;1300;68694;-80
2022/10/12 05:06:13;;;;;;;7.70;4.50;;;;;;;2.98;92.47;101815.82;103880;1294;71173;-79
2022/10/12 05:08:43;;;;;;;8.00;4.80;;;;;;;2.96;92.51;101814.89;103534;1289;60618;-79
2022/10/12 05:11:15;;;;;;;8.60;4.70;;;;;;;2.95;92.63;101815.13;103432;1288;60989;-79
2022/10/12 05:13:49;;;;;;;10.80;5.30;;;;;;;2.95;92.97;101813.91;103272;1293;73969;-78
2022/10/12 05:16:17;;;;;;;11.00;4.60;;;;;;;2.98;93.44;101811.42;103421;1300;73016;-78
2022/10/12 05:18:44;;;;;;;9.50;5.00;;;;;;;3.02;93.69;101814.52;104213;1296;60523;-78
2022/10/12 05:21:11;;;;;;;9.20;5.50;;;;;;;3.04;93.48;101811.23;104433;1295;59191;-78
2022/10/12 05:23:42;;;;;;;11.30;5.00;;;;;;;3.07;93.49;101812.48;104265;1290;60374;-77
2022/10/12 05:26:08;;;;;;;11.00;5.30;;;;;;;3.09;93.43;101814.58;103113;1294;72454;-78
2022/10/12 05:28:41;;;;;;;10.20;5.30;;;;;;;3.13;93.39;101807.73;103973;1294;69943;-78
2022/10/12 05:31:10;;;;;;;8.90;5.00;;;;;;;3.15;93.49;101809.83;103568;1294;72586;-77
2022/10/12 05:33:46;;;;;;;8.70;4.80;;;;;;;3.17;93.30;101808.11;104059;1299;60518;-78
2022/10/12 05:36:15;;;;;;;12.40;5.00;;;;;;;3.18;92.93;101806.30;103235;1293;61250;-79
2022/10/12 05:38:42;;;;;;;7.90;4.70;;;;;;;3.18;92.68;101801.41;103627;1304;73190;-78
2022/10/12 05:41:18;;;;;;;11.30;5.40;;;;;;;3.18;92.76;101800.19;103505;1301;69955;-78
2022/10/12 05:43:52;;;;;;;11.80;4.80;;;;;;;3.18;92.71;101799.87;103006;1294;71586;-79
2022/10/12 05:46:24;;;;;;;10.00;5.30;;;;;;;3.18;92.64;101801.95;103084;1300;60696;-78
2022/10/12 05:48:59;;;;;;;10.00;5.90;;;;;;;3.18;92.76;101803.33;103489;1294;60577;-78
2022/10/12 05:51:26;;;;;;;12.60;6.90;;;;;;;3.19;92.74;101798.21;103832;1294;73676;-79
2022/10/12 05:53:54;;;;;;;11.20;7.40;;;;;;;3.21;92.66;101795.77;102788;1297;69371;-78
2022/10/12 05:56:22;;;;;;;10.80;5.00;;;;;;;3.24;92.78;101796.67;103494;1300;70102;-78
2022/10/12 05:58:51;;;;;;;12.90;5.90;;;;;;;3.25;92.69;101800.09;103610;1293;61042;-79
2022/10/12 06:01:22;;;;;;;12.80;5.50;;;;;;;3.27;92.90;101799.63;103515;1295;59935;-77
2022/10/12 06:03:50;;;;;;;11.40;5.40;;;;;;;3.28;92.59;101797.48;102766;1304;75041;-80
2022/10/12 06:06:28;;;;;;;11.20;5.30;;;;;;;3.30;92.81;101793.16;103234;1288;70006;-78
2022/10/12 06:08:56;;;;;;;12.40;6.40;;;;;;;3.33;92.83;101791.73;103046;1292;70698;-79
2022/10/12 06:11:54;;;;;;;10.10;5.40;;;;;;;3.36;92.47;101790.98;102780;1303;62531;-76
2022/10/12 06:14:25;;;;;;;11.40;5.60;;;;;;;3.42;92.88;101792.48;102446;1291;60455;-79
2022/10/12 06:16:52;;;;;;;12.30;6.20;;;;;;;3.46;92.86;101795.02;103601;1304;73912;-78
2022/10/12 06:19:20;;;;;;;8.60;5.60;;;;;;;3.51;92.81;101799.23;103912;1299;68969;-79
2022/10/12 06:21:47;;;;;;;11.70;6.10;;;;;;;3.56;92.75;101799.95;102784;1304;73157;-77
2022/10/12 06:24:16;;;;;;;12.50;6.90;;;;;;;3.61;92.75;101797.01;103352;1293;61582;-78
2022/10/12 06:26:43;;;;;;;10.90;7.00;;;;;;;3.66;92.74;101796.66;102554;1299;60569;-78
2022/10/12 06:29:10;;;;;;;12.30;7.60;;;;;;;3.73;92.92;101795.52;103419;1300;73383;-78
2022/10/12 06:31:44;;;;;;;12.30;7.10;;;;;;;3.80;92.91;101794.89;102263;1297;70477;-78
2022/10/12 06:34:21;;;;;;;11.70;6.00;;;;;;;3.86;92.78;101794.86;103312;1297;72537;-78
2022/10/12 06:36:53;;;;;;;11.40;5.50;;;;;;;3.92;92.93;101793.70;103887;1298;59880;-78
2022/10/12 06:39:30;;;;;;;10.00;5.60;;;;;;;3.99;92.80;101794.27;102548;1303;60476;-77
2022/10/12 06:42:07;;;;;;;10.20;5.50;;;;;;;4.09;92.99;101793.11;102478;1297;73489;-78
2022/10/12 06:44:42;;;;;;;10.00;5.50;;;;;;;4.17;92.66;101794.49;102773;1307;69680;-79
2022/10/12 06:47:08;;;;;;;10.60;5.60;;;;;;;4.22;92.56;101789.72;103274;1297;60459;-78
2022/10/12 06:49:35;;;;;;;11.60;6.20;;;;;;;4.31;92.91;101795.27;102251;1308;60883;-77
2022/10/12 06:52:02;;;;;;;16.30;6.70;;;;;;;4.40;92.97;101797.95;102418;1312;60546;-79
2022/10/12 06:54:28;;;;;;;11.60;7.70;;;;;;;4.51;93.22;101795.10;102797;1306;72578;-79
2022/10/12 06:56:55;;;;;;;13.30;7.50;;;;;;;4.62;93.27;101800.79;103728;1308;59216;-81
2022/10/12 06:59:28;;;;;;;11.30;6.70;;;;;;;4.71;92.87;101799.80;103324;1309;70837;-79
2022/10/12 07:01:55;;;;;;;9.00;5.60;;;;;;;4.79;92.75;101799.41;103292;1300;60591;-79
2022/10/12 07:04:29;;;;;;;11.40;6.00;;;;;;;4.87;92.68;101801.44;102302;1306;60884;-79
2022/10/12 07:07:05;;;;;;;10.80;6.00;;;;;;;4.95;92.51;101802.98;103407;1300;74023;-78
2022/10/12 07:09:37;;;;;;;12.40;6.20;;;;;;;5.03;92.64;101806.98;102367;1297;71597;-78
2022/10/12 07:12:14;;;;;;;13.40;7.10;;;;;;;5.13;92.80;101805.48;102286;1308;71519;-78
2022/10/12 07:14:46;;;;;;;11.70;5.10;;;;;;;5.24;92.97;101804.55;102584;1305;62260;-78
2022/10/12 07:17:17;;;;;;;11.10;5.20;;;;;;;5.31;92.77;101807.01;102913;1302;61046;-78
2022/10/12 07:19:51;;;;;;;12.30;5.10;;;;;;;5.38;92.68;101799.86;103921;1300;74411;-78
2022/10/12 07:22:17;;;;;;;7.80;4.60;;;;;;;5.45;92.75;101800.39;102771;1296;61711;-77
2022/10/12 07:24:44;;;;;;;9.60;4.50;;;;;;;5.52;92.41;101799.30;103448;1291;59342;-78
2022/10/12 07:27:11;;;;;;;9.30;4.90;;;;;;;5.62;92.60;101798.40;103124;1298;62616;-79
2022/10/12 07:29:40;;;;;;;15.10;5.30;;;;;;;5.77;92.86;101796.73;103265;1304;59303;-79
2022/10/12 07:32:07;;;;;;;11.30;4.30;;;;;;;5.92;92.56;101796.86;102779;1305;73129;-78
2022/10/12 07:34:44;;;;;;;12.20;4.40;;;;;;;6.06;92.49;101798.71;102956;1305;71337;-79
2022/10/12 07:37:12;;;;;;;12.40;4.50;;;;;;;6.18;92.23;101796.25;104021;1297;71526;-78
2022/10/12 07:39:40;;;;;;;9.00;4.20;;;;;;;6.30;91.89;101796.43;102518;1284;60560;-78
2022/10/12 07:42:07;;;;;;;8.90;4.70;;;;;;;6.40;91.76;101803.66;103499;1298;60853;-78
2022/10/12 07:44:34;;;;;;;10.40;4.30;;;;;;;6.52;91.37;101802.02;103098;1300;72493;-79
2022/10/12 07:47:01;;;;;;;9.40;4.30;;;;;;;6.68;91.62;101803.39;103862;1306;69072;-79
2022/10/12 07:49:27;;;;;;;10.30;4.00;;;;;;;6.87;91.82;101811.03;102580;1304;71630;-78
2022/10/12 07:51:53;;;;;;;8.60;4.10;;;;;;;7.04;91.44;101812.14;103050;1293;60620;-79
2022/10/12 07:54:20;;;;;;;9.40;4.30;;;;;;;7.20;91.13;101803.09;103679;1301;60367;-78
2022/10/12 07:56:54;;;;;;;12.10;5.10;;;;;;;7.40;91.05;101803.92;103874;1297;72842;-78
2022/10/12 07:59:20;;;;;;;19.80;12.50;;;;;;;7.56;90.47;101805.55;103514;1290;60415;-78
2022/10/12 08:01:48;;;;;;;10.50;4.10;;;;;;;7.64;89.53;101803.10;103913;1305;71062;-78
2022/10/12 08:04:21;;;;;;;9.80;3.70;;;;;;;7.78;89.29;101805.64;104198;1272;60908;-79
2022/10/12 08:06:48;;;;;;;9.10;3.90;;;;;;;7.95;89.57;101803.36;103543;1300;60540;-79
2022/10/12 08:09:15;;;;;;;9.50;3.30;;;;;;;8.10;88.90;101804.19;103251;1298;60429;-78
2022/10/12 08:11:41;;;;;;;11.50;3.80;;;;;;;8.26;88.68;101806.52;103517;1301;60492;-77
2022/10/12 08:14:13;;;;;;;12.90;4.90;;;;;;;8.43;88.53;101809.27;103570;1304;60608;-79
2022/10/12 08:16:41;;;;;;;7.60;3.60;;;;;;;8.59;87.58;101809.35;103308;1304;60452;-79
2022/10/12 08:19:08;;;;;;;9.70;3.90;;;;;;;8.68;86.77;101811.54;104232;1297;60424;-78
2022/10/12 08:21:37;;;;;;;8.60;3.60;;;;;;;8.80;86.79;101813.36;103881;1286;74095;-80
2022/10/12 08:24:03;;;;;;;11.20;3.30;;;;;;;8.91;85.66;101814.77;103881;1300;60542;-81
2022/10/12 08:26:32;;;;;;;9.90;3.00;;;;;;;9.04;85.97;101810.52;103890;1305;71381;-80
2022/10/12 08:29:01;;;;;;;11.90;3.50;;;;;;;9.14;84.59;101813.49;103648;1300;61301;-80
2022/10/12 08:31:27;;;;;;;9.10;2.90;;;;;;;9.20;83.32;101815.98;104789;1291;58997;-80
2022/10/12 08:33:55;;;;;;;13.60;3.70;;;;;;;9.27;83.52;101815.34;104730;1286;72203;-80
2022/10/12 08:36:22;;;;;;;10.10;3.20;;;;;;;9.39;83.77;101814.92;102854;1304;70869;-79
2022/10/12 08:38:52;;;;;;;10.30;3.20;;;;;;;9.53;84.13;101815.39;104444;1288;72455;-78
2022/10/12 08:41:43;;;;;;;7.80;2.70;;;;;;;9.72;84.21;101817.05;103469;1297;62491;-78
2022/10/12 08:44:22;;;;;;;8.20;3.30;;;;;;;9.90;83.42;101817.35;103571;1297;61900;-79
2022/10/12 08:47:47;;;;;;;9.50;2.70;;;;;;;10.03;82.93;101817.55;103132;1304;71517;-78
2022/10/12 08:50:30;;;;;;;9.80;2.90;;;;;;;10.19;82.16;101813.52;103501;1287;71401;-79
2022/10/12 08:53:14;;;;;;;10.70;2.70;;;;;;;10.29;80.79;101815.81;103041;1305;72602;-76
2022/10/12 08:55:51;;;;;;;10.10;3.30;;;;;;;10.40;80.96;101813.03;103400;1301;60624;-78
2022/10/12 08:58:22;;;;;;;11.10;2.90;;;;;;;10.57;81.35;101813.98;103489;1300;60490;-78
2022/10/12 09:00:56;;;;;;;11.80;3.50;;;;;;;10.78;81.01;101811.48;102539;1291;73078;-78
2022/10/12 09:03:43;;;;;;;9.20;3.10;;;;;;;10.92;79.70;101810.23;103394;1284;71108;-76
2022/10/12 09:06:15;;;;;;;8.70;2.60;;;;;;;11.07;79.19;101811.98;102677;1288;73743;-78
2022/10/12 09:08:48;;;;;;;9.80;3.20;;;;;;;11.23;79.20;101808.30;103759;1298;62255;-77
2022/10/12 09:11:20;;;;;;;10.20;3.60;;;;;;;11.38;78.46;101800.95;103411;1297;60436;-78
2022/10/12 09:14:09;;;;;;;7.70;3.00;;;;;;;11.50;77.40;101800.65;103500;1301;72325;-77
2022/10/12 09:16:43;;;;;;;10.50;3.10;;;;;;;11.62;77.48;101803.39;102612;1304;69744;-77
2022/10/12 09:19:28;;;;;;;11.50;3.00;;;;;;;11.72;76.44;101802.85;103187;1304;72748;-78
2022/10/12 09:21:56;;;;;;;10.10;3.00;;;;;;;11.86;76.43;101802.39;102755;1305;61847;-76
2022/10/12 09:24:33;;;;;;;10.50;3.90;;;;;;;11.96;75.48;101799.97;102572;1289;60599;-76
2022/10/12 09:27:13;;;;;;;9.10;2.70;;;;;;;12.04;75.31;101801.59;102948;1304;73781;-75
2022/10/12 09:30:05;;;;;;;7.90;2.60;;;;;;;12.15;74.20;101797.88;103203;1298;69600;-78
2022/10/12 09:33:10;;;;;;;8.40;3.00;;;;;;;12.23;73.71;101801.28;102534;1298;73288;-75
2022/10/12 09:35:44;;;;;;;6.50;2.40;;;;;;;12.36;74.32;101796.00;102927;1289;62011;-76
2022/10/12 09:38:12;;;;;;;9.50;2.80;;;;;;;12.51;73.84;101791.92;103247;1301;60422;-75
2022/10/12 09:40:39;;;;;;;8.00;2.90;;;;;;;12.69;74.34;101790.26;102991;1296;73683;-75
2022/10/12 09:43:14;;;;;;;11.40;3.10;;;;;;;12.91;74.04;101786.01;102389;1300;69480;-76
2022/10/12 09:45:41;;;;;;;12.50;2.90;;;;;;;13.07;73.14;101786.95;102814;1299;71657;-77
2022/10/12 09:48:23;;;;;;;9.10;2.60;;;;;;;13.18;71.43;101782.39;103750;1292;60404;-73
2022/10/12 09:51:01;;;;;;;11.60;2.80;;;;;;;13.24;71.64;101780.70;103129;1297;60427;-73
2022/10/12 09:53:47;;;;;;;7.70;2.50;;;;;;;13.39;72.14;101778.17;102354;1300;72312;-74
2022/10/12 09:56:29;;;;;;;10.50;3.00;;;;;;;13.55;69.78;101780.02;102637;1289;69475;-75
2022/10/12 09:59:05;;;;;;;7.70;2.40;;;;;;;13.63;68.95;101781.59;103737;1281;73289;-77
2022/10/12 10:01:33;;;;;;;8.00;2.70;;;;;;;13.72;68.88;101776.70;103458;1304;60654;-77
2022/10/12 10:04:23;;;;;;;7.40;2.50;;;;;;;13.84;68.62;101777.55;103328;1304;60406;-77
2022/10/12 10:06:49;;;;;;;9.90;2.60;;;;;;;13.97;68.25;101771.85;103455;1304;72307;-79
2022/10/12 10:09:29;;;;;;;9.20;2.20;;;;;;;14.13;68.41;101773.47;104925;1298;69905;-78
2022/10/12 10:11:57;;;;;;;8.90;2.10;;;;;;;14.30;68.50;101773.10;102317;1300;73007;-77
2022/10/12 10:14:29;;;;;;;9.10;2.10;;;;;;;14.42;67.07;101773.73;102824;1304;61825;-77
2022/10/12 10:16:58;;;;;;;8.10;2.20;;;;;;;14.56;66.45;101774.35;103071;1294;61022;-76
2022/10/12 10:19:27;;;;;;;8.50;2.00;;;;;;;14.62;64.98;101770.22;103219;1294;73990;-75
2022/10/12 10:21:54;;;;;;;8.30;2.00;;;;;;;14.68;65.33;101765.83;103201;1298;70177;-75
2022/10/12 10:24:29;;;;;;;9.00;1.90;;;;;;;14.81;65.41;101768.21;102979;1297;70861;-79
2022/10/12 10:26:59;;;;;;;7.50;1.90;;;;;;;14.96;65.22;101764.39;104600;1296;62414;-77
2022/10/12 10:29:34;;;;;;;8.40;2.30;;;;;;;15.14;64.63;101769.48;102617;1297;61704;-76
2022/10/12 10:32:27;;;;;;;7.70;1.90;;;;;;;15.28;64.04;101757.45;102584;1305;74775;-75
2022/10/12 10:35:00;;;;;;;8.00;1.90;;;;;;;15.45;61.79;101755.60;103368;1301;69631;-76
2022/10/12 10:49:58;;;;;;;7.70;1.60;;;;;;;15.64;57.90;101750.17;101474;1319;612070;-77
2022/10/12 10:52:29;;;;;;;6.70;1.60;;;;;;;15.56;58.26;101741.16;101749;1310;166308;-77
2022/10/12 10:55:21;;;;;;;8.60;2.60;;;;;;;15.57;58.36;101743.35;101241;1312;60758;-76
2022/10/12 10:57:59;;;;;;;5.10;1.80;;;;;;;15.70;58.60;101742.73;101799;1312;72039;-77
2022/10/12 11:00:29;;;;;;;4.10;1.40;;;;;;;15.84;57.55;101737.81;104292;1296;70117;-77
2022/10/12 11:03:25;;;;;;;6.60;1.50;;;;;;;15.99;57.48;101734.34;102521;1300;72685;-77
2022/10/12 11:06:00;;;;;;;7.70;1.90;;;;;;;16.08;55.63;101732.66;104242;1312;60468;-77
2022/10/12 11:08:29;;;;;;;7.00;1.60;;;;;;;16.21;55.59;101731.02;104448;1309;58871;-77
2022/10/12 11:11:11;;;;;;;7.60;1.70;;;;;;;16.35;54.47;101729.45;103944;1306;70472;-77
2022/10/12 11:13:42;;;;;;;7.00;2.00;;;;;;;16.50;54.58;101720.94;104060;1314;70980;-76
2022/10/12 11:16:32;;;;;;;7.30;1.70;;;;;;;16.68;54.24;101718.53;104456;1296;72781;-75
2022/10/12 11:19:18;;;;;;;4.80;1.70;;;;;;;16.84;53.44;101717.48;104291;1295;58696;-75
2022/10/12 11:21:53;;;;;;;7.50;1.70;;;;;;;16.88;50.86;101715.30;104083;1304;59721;-76
2022/10/12 11:24:27;;;;;;;5.40;1.40;;;;;;;16.97;51.31;101712.86;103070;1310;71557;-75
2022/10/12 11:27:04;;;;;;;6.30;1.70;;;;;;;17.16;51.36;101708.25;104211;1299;69679;-75
2022/10/12 11:29:34;;;;;;;3.70;1.20;;;;;;;17.38;50.01;101707.23;104477;1306;72430;-75
2022/10/12 11:32:06;;;;;;;4.70;1.50;;;;;;;17.71;49.41;101705.42;103554;1306;59725;-75
2022/10/12 11:34:47;;;;;;;8.50;1.50;;;;;;;18.12;49.34;101705.85;104190;1308;58827;-74
2022/10/12 11:37:18;;;;;;;5.90;1.30;;;;;;;18.70;47.02;101701.98;104817;1297;71623;-76
2022/10/12 11:39:50;;;;;;;5.70;1.70;;;;;;;19.20;45.29;101699.80;103845;1290;70990;-73
2022/10/12 11:42:38;;;;;;;7.80;1.60;;;;;;;19.55;44.44;101692.69;103273;1296;71660;-74
2022/10/12 11:45:23;;;;;;;6.70;2.20;;;;;;;20.03;42.90;101684.85;102909;1296;60039;-74
2022/10/12 11:47:55;;;;;;;5.70;2.00;;;;;;;20.47;41.70;101677.52;103750;1289;59574;-73
2022/10/12 11:50:34;;;;;;;6.40;1.40;;;;;;;20.94;41.77;101673.43;102584;1290;71928;-74
2022/10/12 11:53:05;;;;;;;8.70;2.20;;;;;;;21.40;40.41;101664.56;102987;1281;71124;-74
2022/10/12 11:55:38;;;;;;;5.30;1.60;;;;;;;22.01;40.29;101666.86;103484;1298;72584;-74
2022/10/12 11:58:27;;;;;;;4.90;1.70;;;;;;;22.51;37.87;101662.79;103312;1290;59662;-75
2022/10/12 12:01:33;;;;;;;7.70;1.70;;;;;;;23.13;36.91;101655.39;101937;1306;60035;-73
2022/10/12 12:04:27;;;;;;;9.30;4.20;;;;;;;23.79;36.90;101649.63;102498;1306;72860;-73